createdAt,value
2022-12-08T00:01:46.822Z,98664.88
2022-12-08T00:04:13.915Z,98665.03
2022-12-08T00:07:01.288Z,98674.44
2022-12-08T00:09:37.856Z,98675.81
2022-12-08T00:12:07.944Z,98672.69
2022-12-08T00:14:36.679Z,98669.97
2022-12-08T00:17:05.005Z,98667.59
2022-12-08T00:19:32.553Z,98666.78
2022-12-08T00:22:00.133Z,98675.81
2022-12-08T00:24:33.323Z,98667.22
2022-12-08T00:27:00.360Z,98672.59
2022-12-08T00:29:27.671Z,98667.16
2022-12-08T00:31:54.876Z,98661.09
2022-12-08T00:34:21.936Z,98660.09
2022-12-08T00:36:49.061Z,98668.03
2022-12-08T00:39:17.133Z,98665.16
2022-12-08T00:42:04.033Z,98669.91
2022-12-08T00:44:31.053Z,98661.28
2022-12-08T00:46:58.022Z,98668.63
2022-12-08T00:49:25.084Z,98672.06
2022-12-08T00:51:52.178Z,98677.06
2022-12-08T00:54:19.213Z,98670.72
2022-12-08T00:56:47.640Z,98673.97
2022-12-08T00:59:15.005Z,98677.06
2022-12-08T01:01:44.804Z,98673.25
2022-12-08T01:04:15.565Z,98682.31
2022-12-08T01:06:43.567Z,98677.22
2022-12-08T01:09:12.864Z,98674.84
2022-12-08T01:11:39.791Z,98681.34
2022-12-08T01:14:08.336Z,98676.09
2022-12-08T01:16:36.465Z,98671.59
2022-12-08T01:19:04.298Z,98673.19
2022-12-08T01:21:31.272Z,98681.25
2022-12-08T01:24:00.042Z,98670.31
2022-12-08T01:26:27.305Z,98683.22
2022-12-08T01:28:54.717Z,98681.09
2022-12-08T01:31:23.634Z,98679.00
2022-12-08T01:33:51.106Z,98685.50
2022-12-08T01:36:21.508Z,98687.88
2022-12-08T01:38:48.588Z,98682.16
2022-12-08T01:41:16.553Z,98689.47
2022-12-08T01:43:54.417Z,98701.88
2022-12-08T01:46:23.526Z,98698.25
2022-12-08T01:48:54.529Z,98701.13
2022-12-08T01:51:21.760Z,98698.94
2022-12-08T01:53:49.615Z,98700.06
2022-12-08T01:56:20.773Z,98696.28
2022-12-08T01:58:51.075Z,98691.19
2022-12-08T02:01:18.530Z,98682.59
2022-12-08T02:03:51.798Z,98689.97
2022-12-08T02:06:20.068Z,98687.41
2022-12-08T02:08:48.923Z,98683.09
2022-12-08T02:11:15.984Z,98688.66
2022-12-08T02:13:45.609Z,98682.59
2022-12-08T02:16:23.292Z,98687.59
2022-12-08T02:19:29.612Z,98686.75
2022-12-08T02:21:56.981Z,98687.53
2022-12-08T02:24:33.939Z,98697.81
2022-12-08T02:27:23.051Z,98698.28
2022-12-08T02:30:19.985Z,98696.00
2022-12-08T02:33:22.383Z,98690.19
2022-12-08T02:35:57.902Z,98692.06
2022-12-08T02:38:45.898Z,98691.34
2022-12-08T02:41:23.938Z,98697.69
2022-12-08T02:43:57.342Z,98695.75
2022-12-08T02:46:30.068Z,98698.91
2022-12-08T02:48:58.058Z,98693.47
2022-12-08T02:51:26.389Z,98688.00
2022-12-08T02:53:53.690Z,98697.84
2022-12-08T02:56:45.773Z,98697.31
2022-12-08T02:59:25.790Z,98710.72
2022-12-08T03:02:05.852Z,98702.06
2022-12-08T03:04:42.101Z,98697.59
2022-12-08T03:07:15.105Z,98699.19
2022-12-08T03:09:47.386Z,98710.78
2022-12-08T03:12:19.134Z,98705.69
2022-12-08T03:14:50.374Z,98695.47
2022-12-08T03:17:20.395Z,98700.75
2022-12-08T03:19:49.189Z,98704.69
2022-12-08T03:22:22.291Z,98699.00
2022-12-08T03:24:49.951Z,98703.41
2022-12-08T03:27:20.116Z,98701.38
2022-12-08T03:29:49.358Z,98708.41
2022-12-08T03:32:23.201Z,98705.59
2022-12-08T03:34:51.769Z,98711.03
2022-12-08T03:37:20.880Z,98704.03
2022-12-08T03:39:48.239Z,98709.13
2022-12-08T03:42:15.385Z,98713.06
2022-12-08T03:44:42.334Z,98711.75
2022-12-08T03:47:09.291Z,98716.34
2022-12-08T03:49:36.445Z,98712.63
2022-12-08T03:52:03.614Z,98714.59
2022-12-08T03:54:31.991Z,98706.47
2022-12-08T03:56:59.147Z,98706.31
2022-12-08T03:59:26.343Z,98706.75
2022-12-08T04:01:53.375Z,98712.47
2022-12-08T04:04:20.787Z,98715.47
2022-12-08T04:06:47.789Z,98710.78
2022-12-08T04:09:14.796Z,98727.50
2022-12-08T04:11:43.179Z,98720.63
2022-12-08T04:14:10.177Z,98722.03
2022-12-08T04:16:37.291Z,98715.19
2022-12-08T04:19:04.292Z,98724.41
2022-12-08T04:21:31.665Z,98715.78
2022-12-08T04:24:01.224Z,98712.28
2022-12-08T04:26:28.648Z,98716.00
2022-12-08T04:28:57.105Z,98716.16
2022-12-08T04:31:24.084Z,98712.63
2022-12-08T04:33:51.264Z,98703.56
2022-12-08T04:36:18.304Z,98695.06
2022-12-08T04:38:45.287Z,98709.66
2022-12-08T04:41:12.307Z,98711.31
2022-12-08T04:43:39.456Z,98715.44
2022-12-08T04:46:08.809Z,98723.09
2022-12-08T04:48:37.886Z,98726.47
2022-12-08T04:51:05.298Z,98735.34
2022-12-08T04:53:32.549Z,98733.22
2022-12-08T04:55:59.495Z,98730.66
2022-12-08T04:58:26.467Z,98734.81
2022-12-08T05:00:53.542Z,98746.59
2022-12-08T05:03:28.327Z,98739.53
2022-12-08T05:05:55.777Z,98740.69
2022-12-08T05:08:22.878Z,98758.38
2022-12-08T05:10:49.848Z,98752.28
2022-12-08T05:13:17.191Z,98742.09
2022-12-08T05:15:44.384Z,98742.72
2022-12-08T05:18:11.376Z,98752.94
2022-12-08T05:20:39.823Z,98746.84
2022-12-08T05:23:06.782Z,98749.41
2022-12-08T05:25:33.746Z,98744.94
2022-12-08T05:28:24.814Z,98739.66
2022-12-08T05:30:47.625Z,98742.03
2022-12-08T05:33:15.007Z,98753.00
2022-12-08T05:35:43.667Z,98759.53
2022-12-08T05:38:10.948Z,98756.97
2022-12-08T05:40:38.268Z,98767.78
2022-12-08T05:43:05.469Z,98770.88
2022-12-08T05:45:32.675Z,98766.88
2022-12-08T05:47:59.905Z,98766.47
2022-12-08T05:50:26.820Z,98761.78
2022-12-08T05:52:56.829Z,98771.66
2022-12-08T05:55:23.881Z,98772.16
2022-12-08T05:57:50.841Z,98771.41
2022-12-08T06:00:18.784Z,98769.00
2022-12-08T06:02:45.912Z,98772.53
2022-12-08T06:05:13.009Z,98762.50
2022-12-08T06:07:40.227Z,98773.47
2022-12-08T06:10:10.270Z,98771.91
2022-12-08T06:12:37.308Z,98772.16
2022-12-08T06:15:04.972Z,98774.25
2022-12-08T06:17:32.449Z,98772.38
2022-12-08T06:19:59.444Z,98773.72
2022-12-08T06:22:26.613Z,98782.97
2022-12-08T06:24:53.639Z,98775.31
2022-12-08T06:27:22.171Z,98777.06
2022-12-08T06:29:49.074Z,98785.13
2022-12-08T06:32:16.113Z,98784.03
2022-12-08T06:34:43.134Z,98786.66
2022-12-08T06:37:10.381Z,98783.59
2022-12-08T06:39:37.434Z,98791.16
2022-12-08T06:42:23.727Z,98790.47
2022-12-08T06:44:52.387Z,98783.81
2022-12-08T06:47:25.954Z,98786.34
2022-12-08T06:49:53.328Z,98786.94
2022-12-08T06:52:20.278Z,98784.84
2022-12-08T06:54:47.261Z,98798.84
2022-12-08T06:57:14.292Z,98802.03
2022-12-08T06:59:41.468Z,98805.09
2022-12-08T07:02:10.486Z,98799.03
2022-12-08T07:04:37.574Z,98790.84
2022-12-08T07:07:04.571Z,98798.50
2022-12-08T07:09:31.542Z,98796.13
2022-12-08T07:11:58.513Z,98800.94
2022-12-08T07:14:25.673Z,98805.16
2022-12-08T07:16:53.150Z,98801.19
2022-12-08T07:19:21.902Z,98802.72
2022-12-08T07:21:49.825Z,98805.28
2022-12-08T07:24:16.787Z,98806.75
2022-12-08T07:26:43.781Z,98804.84
2022-12-08T07:29:11.015Z,98805.19
2022-12-08T07:31:38.086Z,98796.94
2022-12-08T07:34:05.079Z,98803.25
2022-12-08T07:36:33.656Z,98798.94
2022-12-08T07:39:00.656Z,98806.25
2022-12-08T07:41:27.753Z,98816.72
2022-12-08T07:43:56.026Z,98814.59
2022-12-08T07:46:24.999Z,98816.19
2022-12-08T07:48:52.637Z,98819.09
2022-12-08T07:51:19.656Z,98811.28
2022-12-08T07:53:53.704Z,98813.09
2022-12-08T07:56:22.849Z,98821.66
2022-12-08T07:58:50.035Z,98818.56
2022-12-08T08:01:22.652Z,98818.69
2022-12-08T08:03:50.048Z,98828.97
2022-12-08T08:06:17.098Z,98826.47
2022-12-08T08:08:44.037Z,98826.66
2022-12-08T08:11:20.786Z,98828.97
2022-12-08T08:13:48.820Z,98829.47
2022-12-08T08:16:15.977Z,98835.28
2022-12-08T08:18:43.615Z,98836.78
2022-12-08T08:23:57.556Z,98838.28
2022-12-08T08:26:25.997Z,98834.88
2022-12-08T08:28:52.933Z,98836.16
2022-12-08T08:31:24.871Z,98840.56
2022-12-08T08:33:51.955Z,98830.97
2022-12-08T08:36:19.179Z,98822.94
2022-12-08T08:38:46.217Z,98816.44
2022-12-08T08:41:13.181Z,98803.50
2022-12-08T08:43:41.730Z,98806.31
2022-12-08T08:46:10.110Z,98804.31
2022-12-08T08:48:38.280Z,98808.19
2022-12-08T08:51:10.141Z,98819.56
2022-12-08T08:53:37.833Z,98806.22
2022-12-08T08:56:10.500Z,98804.38
2022-12-08T08:58:37.448Z,98809.75
2022-12-08T09:01:06.126Z,98809.75
2022-12-08T09:03:33.453Z,98805.63
2022-12-08T09:06:00.672Z,98793.75
2022-12-08T09:08:27.880Z,98787.66
2022-12-08T09:10:55.086Z,98793.47
2022-12-08T09:13:22.462Z,98793.63
2022-12-08T09:15:49.525Z,98790.19
2022-12-08T09:18:18.041Z,98790.97
2022-12-08T09:20:44.998Z,98788.38
2022-12-08T09:23:12.339Z,98774.09
2022-12-08T09:25:39.311Z,98781.31
2022-12-08T09:28:06.225Z,98778.81
2022-12-08T09:30:33.149Z,98765.03
2022-12-08T09:33:00.075Z,98759.41
2022-12-08T09:35:28.405Z,98753.22
2022-12-08T09:37:55.444Z,98743.84
2022-12-08T09:40:25.224Z,98747.50
2022-12-08T09:42:58.648Z,98752.38
2022-12-08T09:45:29.065Z,98761.47
2022-12-08T09:48:04.401Z,98755.63
2022-12-08T09:50:34.043Z,98741.03
2022-12-08T09:53:06.315Z,98734.53
2022-12-08T09:55:41.360Z,98730.44
2022-12-08T09:58:17.732Z,98721.84
2022-12-08T10:00:44.905Z,98728.78
2022-12-08T10:03:16.558Z,98730.19
2022-12-08T10:05:55.368Z,98732.56
2022-12-08T10:08:31.238Z,98730.56
2022-12-08T10:11:03.197Z,98733.34
2022-12-08T10:13:38.384Z,98737.34
2022-12-08T10:16:22.031Z,98734.44
2022-12-08T10:18:57.809Z,98737.06
2022-12-08T10:21:30.313Z,98738.28
2022-12-08T10:24:02.035Z,98729.06
2022-12-08T10:26:35.482Z,98719.84
2022-12-08T10:29:03.177Z,98720.44
2022-12-08T10:31:32.070Z,98715.72
2022-12-08T10:34:00.677Z,98708.47
2022-12-08T10:36:50.985Z,98704.94
2022-12-08T10:39:36.429Z,98702.97
2022-12-08T10:42:09.120Z,98698.47
2022-12-08T10:44:53.016Z,98696.31
2022-12-08T10:47:22.349Z,98691.78
2022-12-08T10:50:08.283Z,98695.72
2022-12-08T10:52:41.002Z,98681.97
2022-12-08T10:55:15.058Z,98692.78
2022-12-08T10:57:42.321Z,98687.28
2022-12-08T11:00:14.572Z,98691.66
2022-12-08T11:02:57.495Z,98683.81
2022-12-08T11:05:31.069Z,98670.81
2022-12-08T11:08:00.259Z,98676.72
2022-12-08T11:10:37.585Z,98675.50
2022-12-08T11:13:07.068Z,98682.13
2022-12-08T11:15:37.917Z,98667.72
2022-12-08T11:18:22.778Z,98667.13
2022-12-08T11:20:58.434Z,98655.50
2022-12-08T11:23:29.192Z,98651.38
2022-12-08T11:26:01.530Z,98649.00
2022-12-08T11:28:28.941Z,98645.44
2022-12-08T11:31:00.440Z,98647.72
2022-12-08T11:33:28.502Z,98642.75
2022-12-08T11:36:00.631Z,98641.34
2022-12-08T11:38:31.334Z,98642.72
2022-12-08T11:41:03.466Z,98641.72
2022-12-08T11:43:42.450Z,98643.28
2022-12-08T11:46:13.477Z,98642.16
2022-12-08T11:48:46.310Z,98641.63
2022-12-08T11:51:17.345Z,98639.47
2022-12-08T11:53:54.479Z,98635.69
2022-12-08T11:56:25.518Z,98634.28
2022-12-08T11:58:56.797Z,98641.19
2022-12-08T12:01:25.903Z,98651.66
2022-12-08T12:04:00.622Z,98655.22
2022-12-08T12:06:54.791Z,98655.25
2022-12-08T12:09:34.203Z,98646.81
2022-12-08T12:12:14.354Z,98633.84
2022-12-08T12:14:53.045Z,98639.56
2022-12-08T12:17:31.306Z,98643.72
2022-12-08T12:20:03.011Z,98636.03
2022-12-08T12:22:34.485Z,98635.03
2022-12-08T12:25:03.956Z,98641.13
2022-12-08T12:27:38.290Z,98640.09
2022-12-08T12:30:09.758Z,98647.56
2022-12-08T12:32:44.411Z,98646.38
2022-12-08T12:35:22.662Z,98648.50
2022-12-08T12:37:57.527Z,98641.78
2022-12-08T12:40:28.822Z,98641.97
2022-12-08T12:43:27.680Z,98640.59
2022-12-08T12:46:41.746Z,98638.25
2022-12-08T12:49:48.692Z,98636.41
2022-12-08T12:52:41.663Z,98633.78
2022-12-08T12:55:53.588Z,98624.34
2022-12-08T12:58:47.333Z,98632.38
2022-12-08T13:01:50.057Z,98640.25
2022-12-08T13:04:17.752Z,98632.22
2022-12-08T13:06:47.811Z,98628.28
2022-12-08T13:09:23.357Z,98629.44
2022-12-08T13:11:53.317Z,98637.31
2022-12-08T13:14:34.141Z,98641.59
2022-12-08T13:17:04.540Z,98637.25
2022-12-08T13:19:33.133Z,98638.88
2022-12-08T13:22:00.986Z,98632.03
2022-12-08T13:24:34.514Z,98633.00
2022-12-08T13:27:33.999Z,98638.50
2022-12-08T13:30:38.242Z,98641.59
2022-12-08T13:33:19.664Z,98633.28
2022-12-08T13:36:00.370Z,98640.22
2022-12-08T13:38:31.206Z,98640.63
2022-12-08T13:41:02.062Z,98647.16
2022-12-08T13:43:51.017Z,98640.44
2022-12-08T13:58:01.712Z,98644.28
2022-12-08T14:00:28.710Z,98659.41
2022-12-08T14:02:58.376Z,98658.63
2022-12-08T14:06:10.496Z,98647.59
2022-12-08T14:08:58.993Z,98644.06
2022-12-08T14:11:33.510Z,98639.34
2022-12-08T14:14:03.466Z,98633.84
2022-12-08T14:16:36.261Z,98645.25
2022-12-08T14:19:15.090Z,98641.28
2022-12-08T14:21:47.140Z,98639.31
2022-12-08T14:24:14.439Z,98633.41
2022-12-08T14:26:41.476Z,98643.66
2022-12-08T14:29:09.990Z,98632.25
2022-12-08T14:31:37.127Z,98636.41
2022-12-08T14:34:04.286Z,98630.09
2022-12-08T14:36:33.362Z,98632.03
2022-12-08T14:39:01.876Z,98632.03
2022-12-08T14:41:32.854Z,98634.59
2022-12-08T14:44:01.712Z,98632.25
2022-12-08T14:46:28.997Z,98626.94
2022-12-08T14:48:57.117Z,98637.34
2022-12-08T14:51:29.450Z,98634.59
2022-12-08T14:54:01.264Z,98628.28
2022-12-08T14:56:36.731Z,98629.63
2022-12-08T14:59:08.451Z,98629.44
2022-12-08T15:01:36.974Z,98627.44
2022-12-08T15:04:14.707Z,98631.94
2022-12-08T15:06:49.827Z,98631.34
2022-12-08T15:09:28.284Z,98645.84
2022-12-08T15:12:02.801Z,98643.22
2022-12-08T15:14:33.780Z,98644.59
2022-12-08T15:17:01.069Z,98642.38
2022-12-08T15:19:29.898Z,98645.25
2022-12-08T15:21:59.635Z,98636.97
2022-12-08T15:24:29.882Z,98637.94
2022-12-08T15:26:57.157Z,98644.41
2022-12-08T15:29:27.997Z,98637.31
2022-12-08T15:31:57.244Z,98647.94
2022-12-08T15:34:24.543Z,98643.78
2022-12-08T15:36:53.315Z,98646.34
2022-12-08T15:39:30.089Z,98645.13
2022-12-08T15:41:57.154Z,98654.16
2022-12-08T15:44:25.700Z,98649.22
2022-12-08T15:46:53.638Z,98652.31
2022-12-08T15:49:22.903Z,98643.88
2022-12-08T15:51:50.461Z,98641.91
2022-12-08T15:54:17.942Z,98638.19
2022-12-08T15:57:17.554Z,98632.50
2022-12-08T15:59:35.761Z,98633.47
2022-12-08T16:02:02.832Z,98637.25
2022-12-08T16:07:22.747Z,98632.22
2022-12-08T16:09:50.025Z,98638.38
2022-12-08T16:13:40.402Z,98645.28
2022-12-08T16:18:16.804Z,98647.94
2022-12-08T16:21:08.108Z,98641.84
2022-12-08T16:23:46.503Z,98644.41
2022-12-08T16:26:28.423Z,98645.97
2022-12-08T16:29:03.053Z,98635.94
2022-12-08T16:31:31.881Z,98633.56
2022-12-08T16:33:58.934Z,98635.16
2022-12-08T16:36:25.875Z,98638.31
2022-12-08T16:38:52.960Z,98652.50
2022-12-08T16:41:38.244Z,98631.84
2022-12-08T16:44:06.505Z,98637.75
2022-12-08T16:46:36.075Z,98639.31
2022-12-08T16:49:03.523Z,98633.25
2022-12-08T16:51:30.492Z,98621.25
2022-12-08T16:53:58.498Z,98627.72
2022-12-08T16:56:32.246Z,98638.31
2022-12-08T16:59:00.806Z,98635.94
2022-12-08T17:01:27.827Z,98640.34
2022-12-08T17:04:29.318Z,98633.47
2022-12-08T17:06:43.414Z,98623.16
2022-12-08T17:09:10.497Z,98618.00
2022-12-08T17:11:43.040Z,98615.03
2022-12-08T17:14:10.718Z,98606.22
2022-12-08T17:16:37.742Z,98608.38
2022-12-08T17:19:06.227Z,98612.94
2022-12-08T17:21:33.429Z,98608.28
2022-12-08T17:24:00.386Z,98605.94
2022-12-08T17:26:27.452Z,98601.44
2022-12-08T17:29:01.862Z,98624.06
2022-12-08T17:31:30.672Z,98628.00
2022-12-08T17:33:58.734Z,98626.63
2022-12-08T17:36:27.276Z,98631.66
2022-12-08T17:38:54.557Z,98634.22
2022-12-08T17:41:21.564Z,98627.00
2022-12-08T17:43:48.520Z,98616.59
2022-12-08T17:46:17.632Z,98624.63
2022-12-08T17:48:44.685Z,98618.72
2022-12-08T17:51:11.630Z,98617.53
2022-12-08T17:53:40.815Z,98608.50
2022-12-08T17:56:15.130Z,98614.94
2022-12-08T17:58:42.301Z,98615.56
2022-12-08T18:01:11.462Z,98613.00
2022-12-08T18:03:38.973Z,98600.81
2022-12-08T18:06:07.165Z,98605.34
2022-12-08T18:08:34.781Z,98608.44
2022-12-08T18:11:03.881Z,98605.09
2022-12-08T18:13:31.572Z,98599.22
2022-12-08T18:15:58.581Z,98600.00
2022-12-08T18:18:25.711Z,98592.09
2022-12-08T18:20:53.086Z,98594.19
2022-12-08T18:23:20.124Z,98594.06
2022-12-08T18:25:47.649Z,98589.09
2022-12-08T18:28:16.024Z,98588.13
2022-12-08T18:30:43.113Z,98587.09
2022-12-08T18:33:10.286Z,98581.13
2022-12-08T18:35:39.553Z,98594.88
2022-12-08T18:38:06.600Z,98586.97
2022-12-08T18:40:33.773Z,98584.00
2022-12-08T18:43:00.805Z,98582.56
2022-12-08T18:45:29.480Z,98585.56
2022-12-08T18:47:56.634Z,98591.66
2022-12-08T18:50:23.897Z,98579.47
2022-12-08T18:52:51.841Z,98576.75
2022-12-08T18:55:18.985Z,98577.53
2022-12-08T18:57:46.329Z,98576.03
2022-12-08T19:00:16.514Z,98583.91
2022-12-08T19:02:45.562Z,98585.13
2022-12-08T19:05:13.650Z,98578.69
2022-12-08T19:07:45.114Z,98580.28
2022-12-08T19:10:12.957Z,98583.44
2022-12-08T19:12:40.607Z,98593.44
2022-12-08T19:15:09.073Z,98597.59
2022-12-08T19:17:36.292Z,98595.63
2022-12-08T19:20:06.598Z,98582.09
2022-12-08T19:22:33.840Z,98592.91
2022-12-08T19:25:00.826Z,98589.19
2022-12-08T19:27:29.072Z,98585.69
2022-12-08T19:29:56.110Z,98589.63
2022-12-08T19:32:23.196Z,98577.03
2022-12-08T19:34:50.273Z,98577.81
2022-12-08T19:37:18.694Z,98589.44
2022-12-08T19:40:04.640Z,98601.22
2022-12-08T19:42:50.790Z,98596.13
2022-12-08T19:45:21.662Z,98588.44
2022-12-08T19:47:49.005Z,98588.03
2022-12-08T19:50:35.283Z,98580.94
2022-12-08T19:53:05.028Z,98581.44
2022-12-08T19:55:32.278Z,98580.31
2022-12-08T19:58:01.664Z,98583.88
2022-12-08T20:00:30.014Z,98579.91
2022-12-08T20:02:57.525Z,98581.50
2022-12-08T20:05:24.811Z,98579.47
2022-12-08T20:07:52.372Z,98581.44
2022-12-08T20:10:28.256Z,98591.66
2022-12-08T20:13:16.235Z,98589.00
2022-12-08T20:15:43.881Z,98581.13
2022-12-08T20:18:11.437Z,98579.72
2022-12-08T20:20:39.075Z,98580.31
2022-12-08T20:23:06.247Z,98584.91
2022-12-08T20:25:34.905Z,98586.22
2022-12-08T20:28:01.845Z,98589.38
2022-12-08T20:30:28.882Z,98587.00
2022-12-08T20:32:55.888Z,98585.59
2022-12-08T20:35:23.862Z,98582.28
2022-12-08T20:37:50.818Z,98574.25
2022-12-08T20:40:17.982Z,98574.69
2022-12-08T20:42:46.717Z,98577.47
2022-12-08T20:45:13.674Z,98586.53
2022-12-08T20:47:40.714Z,98584.94
2022-12-08T20:50:09.039Z,98584.94
2022-12-08T20:52:37.963Z,98581.44
2022-12-08T20:55:06.716Z,98585.94
2022-12-08T20:57:34.141Z,98595.78
2022-12-08T21:00:02.862Z,98593.22
2022-12-08T21:02:30.281Z,98593.41
2022-12-08T21:04:57.548Z,98594.78
2022-12-08T21:07:24.480Z,98595.78
2022-12-08T21:09:52.626Z,98588.91
2022-12-08T21:12:19.618Z,98597.97
2022-12-08T21:14:46.648Z,98590.13
2022-12-08T21:17:15.197Z,98598.56
2022-12-08T21:19:42.516Z,98601.91
2022-12-08T21:22:09.563Z,98596.00
2022-12-08T21:24:37.852Z,98595.41
2022-12-08T21:27:04.895Z,98598.75
2022-12-08T21:29:31.930Z,98601.47
2022-12-08T21:32:00.275Z,98615.66
2022-12-08T21:34:34.185Z,98608.19
2022-12-08T21:37:02.114Z,98595.41
2022-12-08T21:39:29.255Z,98598.91
2022-12-08T21:42:15.227Z,98603.63
2022-12-08T21:44:42.655Z,98611.81
2022-12-08T21:47:09.852Z,98610.25
2022-12-08T21:49:38.488Z,98616.31
2022-12-08T21:52:05.663Z,98613.94
2022-12-08T21:54:32.804Z,98619.22
2022-12-08T21:56:59.996Z,98622.91
2022-12-08T21:59:27.194Z,98620.19
2022-12-08T22:01:54.404Z,98614.91
2022-12-08T22:04:22.406Z,98621.78
2022-12-08T22:06:51.391Z,98625.28
2022-12-08T22:09:18.536Z,98626.22
2022-12-08T22:11:45.927Z,98625.88
2022-12-08T22:14:15.176Z,98622.53
2022-12-08T22:16:43.067Z,98621.06
2022-12-08T22:19:10.691Z,98625.47
2022-12-08T22:21:38.362Z,98621.09
2022-12-08T22:24:07.549Z,98623.97
2022-12-08T22:26:35.648Z,98622.13
2022-12-08T22:29:02.597Z,98624.34
2022-12-08T22:31:29.795Z,98624.97
2022-12-08T22:33:59.162Z,98629.59
2022-12-08T22:36:27.134Z,98628.91
2022-12-08T22:38:54.972Z,98621.88
2022-12-08T22:41:23.491Z,98623.63
2022-12-08T22:43:51.292Z,98615.91
2022-12-08T22:46:21.137Z,98629.09
2022-12-08T22:48:49.100Z,98630.94
2022-12-08T22:51:16.170Z,98624.34
2022-12-08T22:53:43.877Z,98625.31
2022-12-08T22:56:12.703Z,98631.28
2022-12-08T22:58:42.268Z,98634.50
2022-12-08T23:01:19.789Z,98631.78
2022-12-08T23:03:46.943Z,98616.06
2022-12-08T23:06:14.402Z,98614.84
2022-12-08T23:08:41.473Z,98616.41
2022-12-08T23:11:08.489Z,98612.28
2022-12-08T23:13:36.672Z,98598.84
2022-12-08T23:16:05.673Z,98601.22
2022-12-08T23:18:32.871Z,98591.47
2022-12-08T23:21:03.753Z,98582.84
2022-12-08T23:23:31.012Z,98584.44
2022-12-08T23:25:58.202Z,98587.97
2022-12-08T23:28:25.342Z,98584.44
2022-12-08T23:30:52.496Z,98582.50
2022-12-08T23:33:21.023Z,98576.44
2022-12-08T23:35:56.617Z,98570.91
2022-12-08T23:38:24.400Z,98560.28
2022-12-08T23:40:51.448Z,98561.41
2022-12-08T23:43:18.406Z,98565.72
2022-12-08T23:45:45.512Z,98571.63
2022-12-08T23:48:12.741Z,98573.00
2022-12-08T23:50:41.068Z,98586.09
2022-12-08T23:53:08.087Z,98583.22
2022-12-08T23:55:35.252Z,98583.13
2022-12-08T23:58:02.568Z,98589.53
